createdAt,value
2023-02-17T00:01:27.870Z,9.20
2023-02-17T00:03:55.903Z,9.70
2023-02-17T00:06:25.642Z,8.55
2023-02-17T00:08:54.067Z,8.23
2023-02-17T00:11:21.637Z,10.45
2023-02-17T00:13:49.363Z,8.10
2023-02-17T00:16:18.624Z,8.63
2023-02-17T00:18:47.134Z,10.65
2023-02-17T00:21:18.911Z,8.90
2023-02-17T00:23:47.718Z,9.93
2023-02-17T00:26:16.170Z,9.23
2023-02-17T00:28:45.239Z,12.77
2023-02-17T00:31:23.186Z,9.57
2023-02-17T00:33:55.747Z,9.95
2023-02-17T00:36:24.071Z,9.07
2023-02-17T00:38:51.875Z,14.13
2023-02-17T00:41:19.758Z,11.60
2023-02-17T00:43:47.878Z,10.98
2023-02-17T00:46:17.352Z,9.98
2023-02-17T00:48:46.550Z,8.80
2023-02-17T00:51:14.659Z,12.52
2023-02-17T00:53:42.445Z,11.48
2023-02-17T00:56:10.842Z,10.18
2023-02-17T00:58:39.028Z,10.05
2023-02-17T01:01:06.852Z,10.65
2023-02-17T01:03:35.145Z,9.30
2023-02-17T01:06:07.234Z,13.30
2023-02-17T01:08:35.183Z,8.30
2023-02-17T01:11:03.494Z,10.32
2023-02-17T01:13:32.849Z,8.27
2023-02-17T01:16:00.537Z,11.25
2023-02-17T01:18:28.487Z,9.25
2023-02-17T01:20:56.850Z,11.73
2023-02-17T01:23:24.847Z,8.48
2023-02-17T01:25:53.552Z,8.98
2023-02-17T01:28:23.184Z,6.65
2023-02-17T01:30:51.346Z,7.60
2023-02-17T01:33:19.019Z,10.98
2023-02-17T01:35:46.603Z,10.25
2023-02-17T01:38:14.291Z,9.30
2023-02-17T01:40:49.319Z,13.00
2023-02-17T01:43:18.132Z,7.22
2023-02-17T01:45:53.508Z,7.78
2023-02-17T01:48:40.242Z,9.05
2023-02-17T01:51:14.282Z,13.13
2023-02-17T01:53:57.610Z,11.85
2023-02-17T01:56:26.243Z,9.38
2023-02-17T01:59:01.726Z,8.48
2023-02-17T02:01:30.120Z,8.10
2023-02-17T02:03:59.925Z,9.40
2023-02-17T02:06:28.840Z,8.45
2023-02-17T02:09:20.144Z,8.60
2023-02-17T02:14:17.924Z,10.05
2023-02-17T02:17:05.675Z,11.63
2023-02-17T02:19:52.210Z,7.05
2023-02-17T02:22:40.923Z,8.80
2023-02-17T02:25:17.798Z,8.85
2023-02-17T02:27:49.469Z,9.55
2023-02-17T02:30:33.021Z,11.82
2023-02-17T02:33:27.145Z,12.75
2023-02-17T02:35:54.936Z,11.18
2023-02-17T02:38:43.901Z,8.52
2023-02-17T02:41:14.335Z,8.07
2023-02-17T02:43:42.505Z,11.90
2023-02-17T02:46:10.809Z,9.88
2023-02-17T02:48:38.789Z,11.18
2023-02-17T02:51:14.126Z,8.43
2023-02-17T02:53:57.285Z,10.80
2023-02-17T02:56:57.693Z,8.15
2023-02-17T02:59:45.255Z,7.95
2023-02-17T03:02:18.416Z,9.32
2023-02-17T03:05:02.394Z,9.35
2023-02-17T03:07:33.443Z,7.85
2023-02-17T03:10:02.261Z,8.05
2023-02-17T03:12:30.456Z,8.85
2023-02-17T03:15:01.964Z,11.50
2023-02-17T03:17:33.660Z,7.70
2023-02-17T03:20:03.618Z,11.95
2023-02-17T03:22:40.598Z,8.10
2023-02-17T03:25:09.171Z,10.20
2023-02-17T03:27:36.813Z,8.80
2023-02-17T03:30:05.504Z,11.88
2023-02-17T03:32:33.518Z,9.93
2023-02-17T03:35:01.229Z,7.60
2023-02-17T03:37:31.613Z,10.40
2023-02-17T03:40:00.105Z,9.55
2023-02-17T03:42:27.982Z,12.32
2023-02-17T03:44:55.912Z,8.23
2023-02-17T03:47:23.811Z,10.27
2023-02-17T03:49:52.793Z,11.13
2023-02-17T03:52:20.509Z,8.10
2023-02-17T03:54:48.234Z,8.60
2023-02-17T03:57:15.918Z,6.43
2023-02-17T03:59:43.537Z,9.43
2023-02-17T04:02:11.413Z,4.88
2023-02-17T04:04:39.400Z,6.80
2023-02-17T04:07:07.144Z,6.50
2023-02-17T04:09:35.032Z,6.65
2023-02-17T04:12:02.706Z,8.68
2023-02-17T04:14:30.318Z,7.43
2023-02-17T04:16:57.864Z,10.02
2023-02-17T04:19:25.778Z,6.93
2023-02-17T04:21:53.774Z,12.13
2023-02-17T04:24:21.379Z,12.45
2023-02-17T04:26:49.352Z,14.40
2023-02-17T04:29:17.050Z,11.55
2023-02-17T04:31:45.039Z,14.05
2023-02-17T04:34:12.715Z,12.27
2023-02-17T04:36:44.245Z,13.60
2023-02-17T04:39:12.416Z,12.27
2023-02-17T04:41:40.554Z,11.65
2023-02-17T04:44:08.444Z,10.55
2023-02-17T04:49:21.333Z,9.35
2023-02-17T04:51:49.901Z,10.40
2023-02-17T04:54:17.777Z,8.77
2023-02-17T04:56:45.760Z,10.65
2023-02-17T04:59:13.523Z,11.57
2023-02-17T05:01:41.885Z,10.98
2023-02-17T05:04:09.686Z,11.75
2023-02-17T05:06:37.601Z,10.18
2023-02-17T05:09:05.213Z,11.48
2023-02-17T05:11:32.821Z,9.95
2023-02-17T05:14:00.742Z,8.60
2023-02-17T05:16:28.339Z,11.38
2023-02-17T05:18:56.029Z,9.75
2023-02-17T05:21:23.676Z,7.97
2023-02-17T05:23:51.446Z,8.77
2023-02-17T05:26:19.101Z,8.23
2023-02-17T05:28:46.759Z,8.75
2023-02-17T05:31:14.475Z,6.78
2023-02-17T05:33:42.064Z,7.32
2023-02-17T05:36:10.553Z,6.53
2023-02-17T05:38:38.736Z,7.85
2023-02-17T05:41:06.683Z,7.43
2023-02-17T05:43:34.228Z,8.02
2023-02-17T05:46:03.336Z,7.88
2023-02-17T05:48:31.372Z,8.95
2023-02-17T05:50:59.049Z,9.20
2023-02-17T05:53:26.863Z,8.57
2023-02-17T05:55:54.598Z,6.55
2023-02-17T05:58:22.484Z,9.18
2023-02-17T06:00:50.528Z,7.35
2023-02-17T06:03:18.078Z,8.55
2023-02-17T06:05:46.327Z,10.68
2023-02-17T06:08:14.080Z,6.95
2023-02-17T06:10:42.433Z,5.57
2023-02-17T06:13:10.095Z,9.60
2023-02-17T06:15:38.775Z,9.07
2023-02-17T06:18:06.593Z,8.10
2023-02-17T06:20:34.103Z,6.40
2023-02-17T06:23:01.725Z,7.70
2023-02-17T06:25:29.432Z,7.03
2023-02-17T06:27:57.704Z,7.72
2023-02-17T06:30:25.395Z,8.75
2023-02-17T06:32:53.073Z,10.38
2023-02-17T06:35:20.788Z,9.93
2023-02-17T06:37:48.505Z,8.48
2023-02-17T06:40:16.303Z,10.73
2023-02-17T06:42:43.879Z,12.10
2023-02-17T06:45:11.679Z,9.45
2023-02-17T06:47:39.324Z,8.40
2023-02-17T06:50:07.446Z,13.45
2023-02-17T06:52:35.018Z,7.88
2023-02-17T06:55:02.802Z,12.80
2023-02-17T06:57:30.476Z,7.00
2023-02-17T06:59:58.189Z,10.65
2023-02-17T07:02:25.830Z,12.55
2023-02-17T07:04:53.452Z,10.65
2023-02-17T07:07:21.070Z,10.27
2023-02-17T07:09:48.689Z,14.60
2023-02-17T07:12:16.715Z,14.63
2023-02-17T07:14:44.292Z,10.68
2023-02-17T07:17:11.846Z,15.10
2023-02-17T07:19:39.381Z,11.40
2023-02-17T07:22:07.054Z,11.73
2023-02-17T07:24:34.690Z,10.57
2023-02-17T07:27:02.435Z,13.88
2023-02-17T07:29:30.232Z,13.10
2023-02-17T07:31:57.937Z,11.18
2023-02-17T07:34:25.629Z,10.73
2023-02-17T07:36:53.368Z,12.05
2023-02-17T07:39:21.209Z,10.57
2023-02-17T07:41:48.709Z,16.25
2023-02-17T07:44:19.302Z,13.20
2023-02-17T07:46:46.961Z,12.85
2023-02-17T07:49:14.836Z,14.48
2023-02-17T07:51:42.394Z,11.45
2023-02-17T07:54:09.979Z,16.23
2023-02-17T07:56:37.753Z,10.45
2023-02-17T07:59:08.686Z,12.75
2023-02-17T08:01:36.385Z,13.93
2023-02-17T08:04:04.146Z,14.30
2023-02-17T08:06:32.081Z,12.60
2023-02-17T08:09:18.253Z,13.27
2023-02-17T08:12:04.441Z,18.70
2023-02-17T08:14:33.512Z,19.08
2023-02-17T08:17:01.747Z,20.20
2023-02-17T08:19:39.722Z,12.60
2023-02-17T08:22:14.464Z,11.77
2023-02-17T08:24:41.981Z,15.32
2023-02-17T08:27:09.541Z,15.05
2023-02-17T08:29:37.236Z,13.02
2023-02-17T08:32:04.995Z,10.38
2023-02-17T08:34:33.899Z,9.95
2023-02-17T08:37:05.806Z,10.20
2023-02-17T08:39:33.912Z,12.05
2023-02-17T08:42:01.986Z,13.27
2023-02-17T08:44:29.783Z,14.23
2023-02-17T08:46:57.939Z,12.38
2023-02-17T08:49:28.255Z,15.32
2023-02-17T08:51:55.866Z,13.27
2023-02-17T08:54:23.438Z,17.45
2023-02-17T08:56:51.186Z,14.27
2023-02-17T08:59:18.829Z,12.43
2023-02-17T09:01:46.699Z,14.40
2023-02-17T09:04:14.666Z,13.55
2023-02-17T09:06:46.967Z,15.82
2023-02-17T09:09:16.011Z,11.88
2023-02-17T09:11:44.808Z,13.00
2023-02-17T09:14:12.391Z,11.80
2023-02-17T09:16:41.505Z,11.60
2023-02-17T09:19:09.309Z,14.02
2023-02-17T09:21:36.998Z,13.25
2023-02-17T09:24:04.853Z,9.07
2023-02-17T09:26:35.283Z,11.55
2023-02-17T09:29:03.853Z,15.05
2023-02-17T09:31:32.080Z,11.05
2023-02-17T09:34:02.107Z,12.35
2023-02-17T09:36:31.807Z,10.98
2023-02-17T09:39:00.198Z,10.52
2023-02-17T09:41:38.011Z,9.80
2023-02-17T09:44:14.600Z,13.13
2023-02-17T09:47:01.033Z,10.73
2023-02-17T09:49:33.810Z,13.70
2023-02-17T09:52:01.564Z,15.07
2023-02-17T09:54:37.865Z,11.07
2023-02-17T09:57:07.378Z,10.73
2023-02-17T09:59:40.365Z,11.00
2023-02-17T10:02:15.335Z,10.45
2023-02-17T10:04:46.126Z,15.40
2023-02-17T10:07:18.612Z,15.20
2023-02-17T10:09:49.347Z,13.70
2023-02-17T10:12:22.467Z,11.60
2023-02-17T10:14:52.681Z,13.18
2023-02-17T10:17:32.945Z,12.97
2023-02-17T10:20:19.072Z,13.30
2023-02-17T10:22:48.616Z,12.05
2023-02-17T10:25:18.402Z,11.20
2023-02-17T10:27:58.898Z,12.20
2023-02-17T10:30:47.045Z,12.85
2023-02-17T10:33:22.628Z,13.80
2023-02-17T10:35:54.758Z,11.30
2023-02-17T10:38:38.623Z,12.50
2023-02-17T10:41:07.860Z,12.07
2023-02-17T10:43:35.791Z,15.60
2023-02-17T10:46:06.309Z,11.63
2023-02-17T10:48:43.937Z,12.90
2023-02-17T10:51:15.654Z,12.18
2023-02-17T10:53:45.459Z,13.43
2023-02-17T10:56:15.984Z,11.73
2023-02-17T10:58:49.870Z,13.60
2023-02-17T11:01:17.991Z,12.60
2023-02-17T11:03:45.848Z,19.05
2023-02-17T11:06:19.007Z,13.57
2023-02-17T11:08:50.938Z,13.45
2023-02-17T11:11:20.588Z,14.07
2023-02-17T11:14:06.999Z,17.40
2023-02-17T11:16:34.743Z,12.52
2023-02-17T11:19:02.425Z,15.40
2023-02-17T11:21:33.052Z,13.77
2023-02-17T11:24:07.239Z,11.70
2023-02-17T11:26:36.246Z,12.63
2023-02-17T11:29:17.808Z,11.68
2023-02-17T11:31:55.678Z,13.60
2023-02-17T11:34:28.416Z,16.63
2023-02-17T11:37:23.885Z,11.77
2023-02-17T11:39:55.662Z,14.05
2023-02-17T11:42:27.559Z,14.18
2023-02-17T11:44:56.620Z,11.48
2023-02-17T11:47:33.631Z,11.88
2023-02-17T11:50:04.409Z,11.38
2023-02-17T11:52:51.015Z,11.77
2023-02-17T11:55:37.119Z,12.63
2023-02-17T11:58:09.222Z,9.48
2023-02-17T12:00:44.464Z,10.38
2023-02-17T12:03:15.102Z,10.25
2023-02-17T12:05:52.106Z,14.70
2023-02-17T12:08:19.953Z,15.27
2023-02-17T12:11:09.246Z,10.07
2023-02-17T12:13:39.954Z,12.82
2023-02-17T12:16:08.262Z,12.82
2023-02-17T12:18:54.984Z,13.88
2023-02-17T12:21:35.543Z,11.82
2023-02-17T12:24:08.263Z,10.10
2023-02-17T12:26:42.342Z,12.02
2023-02-17T12:29:28.491Z,14.65
2023-02-17T12:32:00.822Z,15.70
2023-02-17T12:34:43.448Z,11.57
2023-02-17T12:37:20.131Z,15.48
2023-02-17T12:39:53.971Z,9.90
2023-02-17T12:42:36.052Z,12.77
2023-02-17T12:45:08.886Z,11.18
2023-02-17T12:47:42.385Z,10.05
2023-02-17T12:50:20.610Z,7.95
2023-02-17T12:52:51.156Z,11.27
2023-02-17T12:55:23.493Z,9.70
2023-02-17T12:58:12.631Z,12.05
2023-02-17T13:00:43.150Z,9.05
2023-02-17T13:03:12.288Z,12.10
2023-02-17T13:05:43.266Z,12.07
2023-02-17T13:10:40.339Z,10.40
2023-02-17T13:13:11.289Z,12.55
2023-02-17T13:15:40.837Z,9.35
2023-02-17T13:18:13.271Z,8.32
2023-02-17T13:20:52.357Z,9.43
2023-02-17T13:23:31.427Z,8.18
2023-02-17T13:26:07.611Z,7.68
2023-02-17T13:28:37.261Z,8.98
2023-02-17T13:31:18.949Z,10.88
2023-02-17T13:33:51.696Z,10.27
2023-02-17T13:36:22.410Z,9.38
2023-02-17T13:38:59.679Z,9.02
2023-02-17T13:41:28.016Z,9.05
2023-02-17T13:43:56.179Z,12.57
2023-02-17T13:46:26.342Z,11.52
2023-02-17T13:49:05.314Z,13.60
2023-02-17T13:51:34.060Z,8.93
2023-02-17T13:54:09.291Z,9.35
2023-02-17T13:56:37.095Z,15.68
2023-02-17T13:59:09.009Z,10.05
2023-02-17T14:01:38.111Z,9.27
2023-02-17T14:04:18.119Z,10.50
2023-02-17T14:06:46.247Z,9.55
2023-02-17T14:09:20.710Z,9.52
2023-02-17T14:11:49.134Z,9.52
2023-02-17T14:14:16.889Z,7.88
2023-02-17T14:16:45.256Z,7.80
2023-02-17T14:19:13.245Z,6.63
2023-02-17T14:21:42.367Z,6.20
2023-02-17T14:24:25.246Z,5.75
2023-02-17T14:26:56.933Z,5.18
2023-02-17T14:29:24.500Z,5.57
2023-02-17T14:31:53.026Z,5.47
2023-02-17T14:34:29.066Z,5.00
2023-02-17T14:37:07.389Z,6.50
2023-02-17T14:39:35.110Z,6.47
2023-02-17T14:42:02.952Z,7.85
2023-02-17T14:44:31.570Z,7.75
2023-02-17T14:46:59.576Z,9.30
2023-02-17T14:49:27.454Z,7.60
2023-02-17T14:51:55.412Z,5.25
2023-02-17T14:54:25.970Z,6.18
2023-02-17T14:57:04.508Z,9.68
2023-02-17T14:59:32.504Z,12.27
2023-02-17T15:02:00.721Z,6.60
2023-02-17T15:04:28.541Z,6.72
2023-02-17T15:06:56.689Z,4.95
2023-02-17T15:09:29.400Z,8.27
2023-02-17T15:11:57.466Z,7.53
2023-02-17T15:14:28.093Z,9.85
2023-02-17T15:16:55.877Z,7.32
2023-02-17T15:19:24.758Z,7.72
2023-02-17T15:21:53.534Z,7.45
2023-02-17T15:24:23.256Z,6.57
2023-02-17T15:26:50.946Z,10.07
2023-02-17T15:29:20.468Z,8.38
2023-02-17T15:31:48.632Z,5.80
2023-02-17T15:34:18.587Z,6.68
2023-02-17T15:36:46.598Z,5.65
2023-02-17T15:39:16.777Z,8.43
2023-02-17T15:41:45.793Z,5.83
2023-02-17T15:44:16.631Z,9.30
2023-02-17T15:46:46.377Z,7.30
2023-02-17T15:49:14.949Z,7.63
2023-02-17T15:51:42.669Z,5.28
2023-02-17T15:54:10.561Z,7.20
2023-02-17T15:56:46.244Z,6.13
2023-02-17T15:59:17.878Z,4.82
2023-02-17T16:01:45.521Z,7.15
2023-02-17T16:04:14.458Z,6.95
2023-02-17T16:06:45.401Z,7.32
2023-02-17T16:11:52.178Z,7.85
2023-02-17T16:14:29.405Z,5.00
2023-02-17T16:16:57.239Z,6.82
2023-02-17T16:19:25.764Z,6.88
2023-02-17T16:21:53.403Z,7.72
2023-02-17T16:24:21.281Z,7.63
2023-02-17T16:26:49.258Z,6.60
2023-02-17T16:29:22.493Z,7.85
2023-02-17T16:31:50.226Z,9.98
2023-02-17T16:34:22.814Z,9.48
2023-02-17T16:36:51.942Z,9.27
2023-02-17T16:39:20.655Z,6.80
2023-02-17T16:41:48.529Z,7.72
2023-02-17T16:44:17.403Z,4.93
2023-02-17T16:46:49.858Z,5.78
2023-02-17T16:49:32.791Z,9.82
2023-02-17T16:52:01.137Z,8.45
2023-02-17T17:02:51.701Z,8.52
2023-02-17T17:05:20.498Z,7.60
2023-02-17T17:07:49.087Z,6.03
2023-02-17T17:10:19.002Z,9.10
2023-02-17T17:12:48.073Z,8.05
2023-02-17T17:15:19.054Z,6.68
2023-02-17T17:23:15.972Z,6.03
2023-02-17T17:25:48.751Z,7.57
2023-02-17T17:28:18.350Z,6.55
2023-02-17T17:30:50.821Z,7.47
2023-02-17T17:33:18.651Z,7.45
2023-02-17T17:35:46.917Z,6.47
2023-02-17T17:38:16.569Z,6.45
2023-02-17T17:40:53.697Z,7.32
2023-02-17T17:43:23.627Z,7.30
2023-02-17T17:46:00.516Z,7.57
2023-02-17T17:48:28.563Z,9.02
2023-02-17T17:50:58.413Z,7.85
2023-02-17T17:53:27.152Z,10.60
2023-02-17T17:55:55.428Z,6.50
2023-02-17T17:58:23.477Z,8.05
2023-02-17T18:00:53.085Z,8.60
2023-02-17T18:03:21.082Z,6.90
2023-02-17T18:05:48.836Z,6.13
2023-02-17T18:08:16.800Z,9.07
2023-02-17T18:10:46.662Z,7.43
2023-02-17T18:13:20.104Z,7.10
2023-02-17T18:15:47.925Z,9.32
2023-02-17T18:18:16.172Z,6.95
2023-02-17T18:20:45.759Z,6.68
2023-02-17T18:23:14.807Z,10.98
2023-02-17T18:25:43.854Z,13.48
2023-02-17T18:28:11.853Z,9.52
2023-02-17T18:33:21.363Z,8.77
2023-02-17T18:35:49.079Z,7.10
2023-02-17T18:38:16.831Z,7.13
2023-02-17T18:40:44.544Z,5.97
2023-02-17T18:43:12.885Z,6.03
2023-02-17T18:45:41.033Z,7.35
2023-02-17T18:48:08.930Z,10.63
2023-02-17T18:50:37.056Z,6.25
2023-02-17T18:53:05.538Z,7.50
2023-02-17T18:55:33.431Z,9.65
2023-02-17T18:58:01.271Z,8.02
2023-02-17T19:00:29.228Z,6.50
2023-02-17T19:02:56.996Z,8.93
2023-02-17T19:05:24.787Z,7.95
2023-02-17T19:07:53.261Z,8.85
2023-02-17T19:10:21.734Z,9.85
2023-02-17T19:12:52.534Z,15.85
2023-02-17T19:15:23.512Z,23.90
2023-02-17T19:17:55.228Z,10.88
2023-02-17T19:20:23.036Z,12.98
2023-02-17T19:25:34.433Z,9.32
2023-02-17T19:28:03.828Z,8.85
2023-02-17T19:30:34.646Z,9.68
2023-02-17T19:33:07.412Z,9.77
2023-02-17T19:35:38.219Z,10.80
2023-02-17T19:38:08.528Z,13.48
2023-02-17T19:40:36.454Z,12.68
2023-02-17T19:43:05.268Z,12.52
2023-02-17T19:45:33.171Z,12.48
2023-02-17T19:48:05.467Z,8.98
2023-02-17T19:50:33.267Z,8.43
2023-02-17T19:53:01.925Z,11.45
2023-02-17T19:55:30.222Z,10.93
2023-02-17T19:57:58.419Z,10.30
2023-02-17T20:00:26.245Z,11.07
2023-02-17T20:02:54.119Z,11.10
2023-02-17T20:05:21.866Z,11.43
2023-02-17T20:07:50.468Z,11.63
2023-02-17T20:10:19.504Z,12.48
2023-02-17T20:12:47.320Z,11.90
2023-02-17T20:15:15.266Z,15.85
2023-02-17T20:17:43.056Z,14.32
2023-02-17T20:20:12.368Z,13.10
2023-02-17T20:22:40.843Z,15.27
2023-02-17T20:25:08.902Z,13.60
2023-02-17T20:27:36.791Z,13.15
2023-02-17T20:30:05.356Z,12.55
2023-02-17T20:32:33.126Z,25.63
2023-02-17T20:35:00.868Z,10.20
2023-02-17T20:37:28.822Z,12.50
2023-02-17T20:39:56.528Z,10.20
2023-02-17T20:42:24.259Z,15.38
2023-02-17T20:44:52.202Z,11.50
2023-02-17T20:47:19.900Z,15.10
2023-02-17T20:49:47.828Z,11.20
2023-02-17T20:52:15.971Z,11.10
2023-02-17T20:54:44.933Z,11.07
2023-02-17T20:57:15.733Z,11.10
2023-02-17T20:59:43.407Z,15.93
2023-02-17T21:05:05.101Z,11.48
2023-02-17T21:07:35.215Z,12.88
2023-02-17T21:10:04.157Z,11.85
2023-02-17T21:12:31.910Z,12.77
2023-02-17T21:14:59.950Z,10.10
2023-02-17T21:17:27.876Z,11.70
2023-02-17T21:19:55.532Z,11.88
2023-02-17T21:22:23.202Z,10.05
2023-02-17T21:24:51.351Z,10.30
2023-02-17T21:27:19.281Z,12.80
2023-02-17T21:29:46.846Z,13.82
2023-02-17T21:32:15.023Z,11.30
2023-02-17T21:34:42.781Z,10.57
2023-02-17T21:37:10.554Z,9.80
2023-02-17T21:39:38.328Z,9.10
2023-02-17T21:42:07.044Z,7.15
2023-02-17T21:44:52.994Z,5.35
2023-02-17T21:47:21.287Z,4.85
2023-02-17T21:49:49.158Z,4.47
2023-02-17T21:52:16.832Z,3.03
2023-02-17T21:54:44.515Z,2.88
2023-02-17T21:57:12.238Z,3.78
2023-02-17T21:59:39.838Z,2.17
2023-02-17T22:02:07.493Z,2.70
2023-02-17T22:04:35.193Z,2.03
2023-02-17T22:07:03.281Z,2.25
2023-02-17T22:09:31.536Z,2.05
2023-02-17T22:11:59.227Z,2.38
2023-02-17T22:14:26.949Z,2.42
2023-02-17T22:16:54.780Z,2.10
2023-02-17T22:19:23.914Z,2.80
2023-02-17T22:21:53.560Z,2.25
2023-02-17T22:24:21.447Z,2.03
2023-02-17T22:26:50.412Z,3.30
2023-02-17T22:29:18.210Z,1.30
2023-02-17T22:31:46.396Z,1.95
2023-02-17T22:34:15.428Z,1.98
2023-02-17T22:36:43.187Z,2.55
2023-02-17T22:39:10.925Z,2.25
2023-02-17T22:41:39.572Z,2.55
2023-02-17T22:44:07.798Z,2.63
2023-02-17T22:46:35.506Z,2.42
2023-02-17T22:49:03.094Z,2.45
2023-02-17T22:51:32.644Z,2.25
2023-02-17T22:54:06.975Z,1.92
2023-02-17T22:56:38.345Z,3.83
2023-02-17T22:59:06.321Z,2.03
2023-02-17T23:01:43.055Z,2.40
2023-02-17T23:06:54.377Z,3.17
2023-02-17T23:09:23.986Z,2.58
2023-02-17T23:11:57.527Z,2.17
2023-02-17T23:14:30.261Z,2.10
2023-02-17T23:17:09.495Z,1.77
2023-02-17T23:19:37.657Z,2.10
2023-02-17T23:22:18.121Z,2.03
2023-02-17T23:24:46.752Z,2.38
2023-02-17T23:27:14.878Z,1.92
2023-02-17T23:29:45.628Z,2.03
2023-02-17T23:32:13.911Z,2.42
2023-02-17T23:34:43.819Z,2.67
2023-02-17T23:37:11.515Z,1.38
2023-02-17T23:39:39.368Z,3.20
2023-02-17T23:42:07.227Z,2.38
2023-02-17T23:44:34.954Z,2.15
2023-02-17T23:47:03.584Z,3.80
2023-02-17T23:49:31.545Z,2.88
2023-02-17T23:51:59.546Z,2.15
2023-02-17T23:54:27.611Z,2.90
2023-02-17T23:56:56.136Z,3.88
2023-02-17T23:59:23.959Z,2.90
